Time;durP1;ratioP1;P1;durP2;ratioP2;P2;SDS_P1;SDS_P2;PMS_P1;PMS_P2;Temp;Humidity;BMP_temperature;BMP_pressure;BME280_temperature;BME280_humidity;BME280_pressure;Samples;Min_cycle;Max_cycle;Signal;HPM_P1;HPM_P2
2023/07/16 00:01:34;;;;;;;5.88;1.95;;;;;;;-142.75;100.00;75814.47;5006763;28;20033;-62
2023/07/16 00:03:59;;;;;;;9.32;2.15;;;;;;;-142.75;100.00;75822.34;5006818;28;20645;-61
2023/07/16 00:06:25;;;;;;;10.63;2.50;;;;;;;-142.75;100.00;75818.41;5006918;28;20072;-62
2023/07/16 00:08:50;;;;;;;6.68;2.03;;;;;;;-142.75;100.00;75822.34;5006591;28;20041;-62
2023/07/16 00:11:15;;;;;;;3.90;1.60;;;;;;;-142.75;100.00;75822.34;5006790;28;20105;-63
2023/07/16 00:13:45;;;;;;;9.35;2.35;;;;;;;-142.75;100.00;75820.38;5006856;28;20041;-59
2023/07/16 00:16:11;;;;;;;9.10;2.00;;;;;;;-142.75;100.00;75824.31;5006457;28;20026;-62
2023/07/16 00:18:37;;;;;;;8.25;2.35;;;;;;;-142.75;100.00;75826.28;5007638;28;20030;-63
2023/07/16 00:21:02;;;;;;;14.38;2.15;;;;;;;-142.75;100.00;75828.25;5006192;28;20492;-62
2023/07/16 00:23:27;;;;;;;7.30;2.33;;;;;;;-142.75;100.00;75828.25;5006528;28;20481;-61
2023/07/16 00:25:53;;;;;;;11.80;2.13;;;;;;;-142.75;100.00;75824.31;4994715;28;20538;-62
2023/07/16 00:28:18;;;;;;;12.18;2.65;;;;;;;-142.75;100.00;75816.44;4987431;28;20033;-63
2023/07/16 00:30:43;;;;;;;6.28;2.20;;;;;;;-142.75;100.00;75826.28;4985926;28;20022;-62
2023/07/16 00:33:09;;;;;;;5.07;1.83;;;;;;;-142.75;100.00;75834.16;4985686;28;20027;-63
2023/07/16 00:35:34;;;;;;;9.85;2.33;;;;;;;-142.75;100.00;75836.13;4987080;28;20054;-62
2023/07/16 00:38:00;;;;;;;7.97;1.92;;;;;;;-142.75;100.00;75836.13;4986781;28;20018;-61
2023/07/16 00:40:25;;;;;;;6.50;1.80;;;;;;;-142.75;100.00;75838.09;4986658;28;20065;-62
2023/07/16 00:42:50;;;;;;;6.03;2.00;;;;;;;-142.75;100.00;75842.03;4986833;28;20030;-63
2023/07/16 00:45:16;;;;;;;6.57;2.05;;;;;;;-142.75;100.00;75830.22;4986700;28;20030;-63
2023/07/16 00:47:43;;;;;;;7.00;2.08;;;;;;;-142.75;100.00;75828.25;4987663;28;20038;-63
2023/07/16 00:50:11;;;;;;;8.55;2.78;;;;;;;-142.75;100.00;75826.28;4986525;28;20126;-62
2023/07/16 00:52:36;;;;;;;6.15;2.10;;;;;;;-142.75;100.00;75844.00;4986670;28;20084;-63
2023/07/16 00:55:02;;;;;;;11.45;2.17;;;;;;;-142.75;100.00;75834.16;4986495;28;20436;-62
2023/07/16 00:57:29;;;;;;;4.78;2.00;;;;;;;-142.75;100.00;75838.09;5005627;28;20053;-61
2023/07/16 00:59:54;;;;;;;8.25;2.40;;;;;;;-142.75;100.00;75865.63;5005258;28;20026;-62
2023/07/16 01:02:20;;;;;;;8.30;2.33;;;;;;;-142.75;100.00;75845.97;5005846;28;20084;-62
2023/07/16 01:04:45;;;;;;;11.07;3.20;;;;;;;-142.75;100.00;75847.94;5005447;28;20115;-63
2023/07/16 01:07:14;;;;;;;13.35;3.05;;;;;;;-142.75;100.00;75853.84;5005645;28;20033;-61
2023/07/16 01:09:42;;;;;;;6.10;2.53;;;;;;;-142.75;100.00;75836.13;5005613;28;20029;-63
2023/07/16 01:12:08;;;;;;;9.55;2.45;;;;;;;-142.75;100.00;75842.03;5005680;28;20574;-62
2023/07/16 01:14:34;;;;;;;10.32;2.33;;;;;;;-142.75;100.00;75822.34;5004267;28;20022;-62
2023/07/16 01:17:06;;;;;;;9.90;2.63;;;;;;;-142.75;100.00;75828.25;4986330;28;20079;-63
2023/07/16 01:19:33;;;;;;;9.15;2.47;;;;;;;-142.75;100.00;75853.84;5000929;28;20072;-62
2023/07/16 01:22:30;;;;;;;6.53;2.80;;;;;;;-142.75;100.00;75844.00;5005471;28;20515;-62
2023/07/16 01:25:01;;;;;;;9.13;3.08;;;;;;;-142.75;100.00;75847.94;5005030;28;20026;-63
2023/07/16 01:27:51;;;;;;;5.97;2.80;;;;;;;-142.75;100.00;75826.28;5005269;28;20034;-63
2023/07/16 01:30:18;;;;;;;10.70;3.13;;;;;;;-142.75;100.00;75840.06;5005186;28;20049;-62
2023/07/16 01:32:45;;;;;;;8.00;2.88;;;;;;;-142.75;100.00;75842.03;5005450;28;20057;-62
2023/07/16 01:35:12;;;;;;;6.82;2.70;;;;;;;-142.75;100.00;75847.94;5004550;28;20052;-63
2023/07/16 01:37:37;;;;;;;9.65;2.85;;;;;;;-142.75;100.00;75842.03;5005499;28;20060;-62
2023/07/16 01:40:03;;;;;;;12.45;2.80;;;;;;;-142.75;100.00;75842.03;5004744;28;20030;-62
2023/07/16 01:42:29;;;;;;;7.30;2.72;;;;;;;-142.75;100.00;75857.78;5005282;28;20026;-62
2023/07/16 01:44:54;;;;;;;10.38;3.47;;;;;;;-142.75;100.00;75853.84;5005010;28;20076;-62
2023/07/16 01:47:35;;;;;;;10.35;3.60;;;;;;;-142.75;100.00;75845.97;5005441;28;20049;-62
2023/07/16 01:50:00;;;;;;;11.20;3.45;;;;;;;-142.75;100.00;75869.56;5004727;28;20087;-62
2023/07/16 01:52:26;;;;;;;9.15;3.30;;;;;;;-142.75;100.00;75891.22;5004935;28;20033;-62
2023/07/16 01:54:51;;;;;;;10.45;3.25;;;;;;;-142.75;100.00;75869.56;5004877;28;20040;-62
2023/07/16 01:57:16;;;;;;;8.07;2.63;;;;;;;-142.75;100.00;75873.50;5005158;28;20410;-62
2023/07/16 01:59:42;;;;;;;9.02;3.45;;;;;;;-142.75;100.00;75863.66;5004650;28;20030;-62
2023/07/16 02:02:07;;;;;;;10.13;4.32;;;;;;;-142.75;100.00;75855.81;5004963;28;20037;-61
2023/07/16 02:04:32;;;;;;;6.50;3.38;;;;;;;-142.75;100.00;75865.63;5004813;28;20034;-61
2023/07/16 02:06:58;;;;;;;9.27;3.03;;;;;;;-142.75;100.00;75869.56;5004611;28;20034;-62
2023/07/16 02:09:25;;;;;;;11.75;3.35;;;;;;;-142.75;100.00;75877.44;5004123;28;20025;-62
2023/07/16 02:11:50;;;;;;;12.65;3.45;;;;;;;-142.75;100.00;75859.72;5004750;28;20533;-62
2023/07/16 02:14:16;;;;;;;9.45;4.18;;;;;;;-142.75;100.00;75875.47;5004708;28;20030;-62
2023/07/16 02:16:41;;;;;;;9.43;3.22;;;;;;;-142.75;100.00;75865.63;5004914;28;20028;-62
2023/07/16 02:19:06;;;;;;;7.40;3.38;;;;;;;-142.75;100.00;75871.53;5004848;28;20026;-61
2023/07/16 02:21:32;;;;;;;7.75;3.03;;;;;;;-142.75;100.00;75861.69;5004826;28;20029;-61
2023/07/16 02:23:57;;;;;;;10.98;3.63;;;;;;;-142.75;100.00;75875.47;5004697;28;20026;-61
2023/07/16 02:26:22;;;;;;;14.80;3.45;;;;;;;-142.75;100.00;75875.47;5004595;28;20029;-62
2023/07/16 02:28:48;;;;;;;10.27;3.38;;;;;;;-142.75;100.00;75869.56;5004542;28;20046;-62
2023/07/16 02:31:13;;;;;;;11.52;3.35;;;;;;;-142.75;100.00;75865.63;5004754;28;20034;-63
2023/07/16 02:33:38;;;;;;;11.43;3.13;;;;;;;-142.75;100.00;75871.53;5004363;28;20470;-61
2023/07/16 02:36:04;;;;;;;11.13;4.03;;;;;;;-142.75;100.00;75873.50;5004465;28;20061;-62
2023/07/16 02:38:29;;;;;;;11.85;3.30;;;;;;;-142.75;100.00;75861.69;5004500;28;20096;-62
2023/07/16 02:40:55;;;;;;;10.77;3.47;;;;;;;-142.75;100.00;75861.69;5004110;28;20104;-61
2023/07/16 02:43:20;;;;;;;12.73;3.83;;;;;;;-142.75;100.00;75877.44;5004461;28;20030;-63
2023/07/16 02:45:45;;;;;;;9.75;3.38;;;;;;;-142.75;100.00;75861.69;5004632;28;20140;-61
2023/07/16 02:48:11;;;;;;;10.63;3.53;;;;;;;-142.75;100.00;75869.56;5005128;28;20054;-62
2023/07/16 02:50:37;;;;;;;13.07;2.83;;;;;;;-142.75;100.00;75879.41;4984798;28;20085;-61
2023/07/16 02:53:07;;;;;;;7.97;2.75;;;;;;;-142.75;100.00;75849.91;4985418;28;20026;-61
2023/07/16 02:55:32;;;;;;;7.55;3.17;;;;;;;-142.75;100.00;75865.63;4988661;28;20053;-60
2023/07/16 02:57:57;;;;;;;10.40;3.25;;;;;;;-142.75;100.00;75885.31;4988918;28;20552;-61
2023/07/16 03:00:23;;;;;;;9.93;2.67;;;;;;;-142.75;100.00;75881.38;4997241;28;20029;-62
2023/07/16 03:02:51;;;;;;;11.07;3.40;;;;;;;-142.75;100.00;75893.19;5000153;28;20023;-63
2023/07/16 03:05:17;;;;;;;9.38;2.85;;;;;;;-142.75;100.00;75924.69;4988385;28;20026;-60
2023/07/16 03:07:43;;;;;;;9.88;2.65;;;;;;;-142.75;100.00;75901.06;4988725;28;20026;-61
2023/07/16 03:10:09;;;;;;;10.55;2.55;;;;;;;-142.75;100.00;75889.25;4988139;28;20029;-62
2023/07/16 03:12:34;;;;;;;7.60;2.53;;;;;;;-142.75;100.00;75912.88;4988792;28;20026;-62
2023/07/16 03:14:59;;;;;;;6.50;2.78;;;;;;;-142.75;100.00;75899.09;4988265;28;20034;-62
2023/07/16 03:17:25;;;;;;;6.90;2.80;;;;;;;-142.75;100.00;75918.78;4988509;28;20054;-62
2023/07/16 03:19:50;;;;;;;8.10;2.85;;;;;;;-142.75;100.00;75910.91;4988383;28;20022;-61
2023/07/16 03:22:15;;;;;;;10.93;3.20;;;;;;;-142.75;100.00;75938.47;4988323;28;20458;-62
2023/07/16 03:24:41;;;;;;;8.27;3.33;;;;;;;-142.75;100.00;75916.81;4988501;28;20022;-62
2023/07/16 03:27:07;;;;;;;12.27;3.63;;;;;;;-142.75;100.00;75920.75;5003097;28;20106;-62
2023/07/16 03:29:33;;;;;;;8.90;2.75;;;;;;;-142.75;100.00;75916.81;4987708;28;20026;-62
2023/07/16 03:31:58;;;;;;;9.43;3.13;;;;;;;-142.75;100.00;75932.56;4987933;28;20089;-62
2023/07/16 03:34:23;;;;;;;9.18;3.40;;;;;;;-142.75;100.00;75924.69;4988097;28;20053;-63
2023/07/16 03:36:49;;;;;;;10.85;4.07;;;;;;;-142.75;100.00;75920.75;4988015;28;20026;-62
2023/07/16 03:39:14;;;;;;;7.97;3.38;;;;;;;-142.75;100.00;75932.56;4987557;28;20069;-62
2023/07/16 03:41:39;;;;;;;12.60;3.30;;;;;;;-142.75;100.00;75940.44;4988290;28;20026;-62
2023/07/16 03:44:05;;;;;;;7.97;3.50;;;;;;;-142.75;100.00;75944.38;4987891;28;20061;-63
2023/07/16 03:46:30;;;;;;;10.50;3.90;;;;;;;-142.75;100.00;75958.16;4987851;28;20021;-63
2023/07/16 03:48:56;;;;;;;8.15;3.15;;;;;;;-142.75;100.00;75967.97;4988382;28;20478;-62
2023/07/16 03:51:21;;;;;;;8.95;3.58;;;;;;;-142.75;100.00;75960.13;4987842;28;20061;-62
2023/07/16 03:53:46;;;;;;;10.95;4.03;;;;;;;-142.75;100.00;75969.94;4987780;28;20038;-64
2023/07/16 03:56:11;;;;;;;9.52;3.85;;;;;;;-142.75;100.00;75975.84;4987339;28;20053;-63
2023/07/16 03:58:37;;;;;;;13.43;3.90;;;;;;;-142.75;100.00;75967.97;4987478;28;20138;-63
2023/07/16 04:01:02;;;;;;;7.82;3.58;;;;;;;-142.75;100.00;75973.88;4987334;28;20230;-63
2023/07/16 04:03:27;;;;;;;7.25;3.90;;;;;;;-142.75;100.00;75979.78;4987441;28;20038;-62
2023/07/16 04:06:04;;;;;;;9.80;3.42;;;;;;;-142.75;100.00;75973.88;4986147;28;20084;-62
2023/07/16 04:08:29;;;;;;;6.68;3.30;;;;;;;-142.75;100.00;75991.59;4987476;28;20031;-63
2023/07/16 04:10:55;;;;;;;10.68;3.25;;;;;;;-142.75;100.00;75979.78;4986809;28;20390;-62
2023/07/16 04:13:20;;;;;;;6.55;2.92;;;;;;;-142.75;100.00;75973.88;4987316;28;20026;-62
2023/07/16 04:15:45;;;;;;;10.73;4.00;;;;;;;-142.75;100.00;75991.59;4986987;28;20018;-62
2023/07/16 04:18:11;;;;;;;10.15;3.72;;;;;;;-142.75;100.00;75987.66;4988422;28;20032;-63
2023/07/16 04:20:36;;;;;;;10.43;3.85;;;;;;;-142.75;100.00;75985.69;4987328;28;20030;-60
2023/07/16 04:23:01;;;;;;;7.32;3.50;;;;;;;-142.75;100.00;75989.63;4986853;28;20033;-62
2023/07/16 04:25:27;;;;;;;12.63;3.63;;;;;;;-142.75;100.00;75987.66;5002639;28;20050;-63
2023/07/16 04:27:52;;;;;;;11.00;3.53;;;;;;;-142.75;100.00;75997.50;5006336;28;20594;-63
2023/07/16 04:30:17;;;;;;;9.43;3.67;;;;;;;-142.75;100.00;75993.56;5005940;28;20053;-62
2023/07/16 04:32:43;;;;;;;11.32;3.75;;;;;;;-142.75;100.00;75989.63;5006364;28;20033;-63
2023/07/16 04:35:08;;;;;;;11.27;4.28;;;;;;;-142.75;100.00;75979.78;5006152;28;20026;-62
2023/07/16 04:37:34;;;;;;;12.77;4.07;;;;;;;-142.75;100.00;75979.78;5006161;28;20453;-62
2023/07/16 04:39:59;;;;;;;6.55;2.97;;;;;;;-142.75;100.00;75975.84;4986380;28;20098;-62
2023/07/16 04:42:24;;;;;;;9.60;3.65;;;;;;;-142.75;100.00;75973.88;4986859;28;20029;-62
2023/07/16 04:44:50;;;;;;;12.18;4.55;;;;;;;-142.75;100.00;75966.00;4986941;28;20022;-63
2023/07/16 04:47:15;;;;;;;12.52;3.83;;;;;;;-142.75;100.00;75962.09;4986658;28;20041;-63
2023/07/16 04:49:40;;;;;;;9.70;3.83;;;;;;;-142.75;100.00;75967.97;4987501;28;20037;-62
2023/07/16 04:52:06;;;;;;;11.73;4.47;;;;;;;-142.75;100.00;75987.66;4986496;28;20030;-63
2023/07/16 04:54:36;;;;;;;8.00;3.58;;;;;;;-142.75;100.00;75971.91;4986693;28;20027;-62
2023/07/16 04:57:01;;;;;;;13.38;4.20;;;;;;;-142.75;100.00;75987.66;4986545;28;20091;-62
2023/07/16 04:59:27;;;;;;;10.45;4.15;;;;;;;-142.75;100.00;75971.91;4985913;28;20049;-62
2023/07/16 05:01:52;;;;;;;10.60;4.07;;;;;;;-142.75;100.00;75973.88;4986359;28;20130;-62
2023/07/16 05:04:17;;;;;;;8.23;3.08;;;;;;;-142.75;100.00;75979.78;4986410;28;20038;-63
2023/07/16 05:06:43;;;;;;;8.38;3.35;;;;;;;-142.75;100.00;75979.78;4986486;28;20037;-63
2023/07/16 05:09:08;;;;;;;7.18;3.42;;;;;;;-142.75;100.00;75964.03;4986026;28;20041;-63
2023/07/16 05:11:33;;;;;;;10.60;4.00;;;;;;;-142.75;100.00;75960.13;4986268;28;20030;-62
2023/07/16 05:13:59;;;;;;;8.73;3.80;;;;;;;-142.75;100.00;75975.84;4985792;28;20026;-63
2023/07/16 05:16:24;;;;;;;9.77;3.67;;;;;;;-142.75;100.00;75967.97;4985791;28;20084;-64
2023/07/16 05:18:49;;;;;;;11.40;4.68;;;;;;;-142.75;100.00;75960.13;5001826;28;20053;-63
2023/07/16 05:21:15;;;;;;;9.77;3.83;;;;;;;-142.75;100.00;75967.97;4985864;28;20069;-63
2023/07/16 05:23:40;;;;;;;7.03;3.80;;;;;;;-142.75;100.00;75960.13;4986295;28;20122;-63
2023/07/16 05:26:05;;;;;;;9.77;3.85;;;;;;;-142.75;100.00;75954.22;4985985;28;20037;-63
2023/07/16 05:28:31;;;;;;;8.00;4.15;;;;;;;-142.75;100.00;75975.84;4985802;28;20033;-62
2023/07/16 05:31:03;;;;;;;7.50;3.55;;;;;;;-142.75;100.00;75946.34;4984271;28;20553;-63
2023/07/16 05:33:28;;;;;;;7.38;3.38;;;;;;;-142.75;100.00;75940.44;4985685;28;20113;-63
2023/07/16 05:35:54;;;;;;;7.80;3.78;;;;;;;-142.75;100.00;75944.38;4985733;28;20118;-63
2023/07/16 05:38:19;;;;;;;8.90;3.88;;;;;;;-142.75;100.00;75938.47;4985748;28;20057;-62
2023/07/16 05:40:45;;;;;;;9.48;4.20;;;;;;;-142.75;100.00;75920.75;4985588;28;20057;-62
2023/07/16 05:43:10;;;;;;;14.32;4.10;;;;;;;-142.75;100.00;75920.75;4985642;28;20085;-62
2023/07/16 05:45:36;;;;;;;8.70;3.70;;;;;;;-142.75;100.00;75940.44;4985551;28;20088;-63
2023/07/16 05:48:02;;;;;;;9.07;3.67;;;;;;;-142.75;100.00;75916.81;4986230;28;20225;-63
2023/07/16 05:50:27;;;;;;;11.00;4.05;;;;;;;-142.75;100.00;75914.84;4983820;28;20044;-63
2023/07/16 05:52:52;;;;;;;12.63;4.35;;;;;;;-142.75;100.00;75940.44;4983077;28;20026;-63
2023/07/16 05:55:18;;;;;;;6.78;3.85;;;;;;;-142.75;100.00;75924.69;4992271;28;20133;-63
2023/07/16 05:57:43;;;;;;;11.02;4.28;;;;;;;-142.75;100.00;75932.56;4999930;28;20053;-63
2023/07/16 06:00:10;;;;;;;12.07;4.35;;;;;;;-142.75;100.00;75960.13;5004909;28;20018;-62
2023/07/16 06:02:35;;;;;;;8.95;4.40;;;;;;;-142.75;100.00;75946.34;5005028;28;20030;-63
2023/07/16 06:05:00;;;;;;;10.50;4.13;;;;;;;-142.75;100.00;75936.50;5004959;28;20608;-62
2023/07/16 06:07:26;;;;;;;12.38;4.32;;;;;;;-142.75;100.00;75924.69;5004845;28;20034;-62
2023/07/16 06:09:51;;;;;;;9.60;4.40;;;;;;;-142.75;100.00;75924.69;5004446;28;20060;-62
2023/07/16 06:12:16;;;;;;;9.15;3.97;;;;;;;-142.75;100.00;75910.91;5004356;28;20026;-63
2023/07/16 06:14:42;;;;;;;10.13;4.57;;;;;;;-142.75;100.00;75889.25;5004609;28;20021;-63
2023/07/16 06:17:07;;;;;;;10.75;4.57;;;;;;;-142.75;100.00;75899.09;5004759;28;20129;-62
2023/07/16 06:19:32;;;;;;;6.78;4.00;;;;;;;-142.75;100.00;75895.16;5005474;28;20026;-62
2023/07/16 06:21:58;;;;;;;9.27;3.85;;;;;;;-142.75;100.00;75897.13;5004714;28;20112;-62
2023/07/16 06:24:23;;;;;;;9.75;3.85;;;;;;;-142.75;100.00;75905.00;5004550;28;20056;-63
2023/07/16 06:26:48;;;;;;;9.63;4.20;;;;;;;-142.75;100.00;75910.91;5004677;28;20026;-63
2023/07/16 06:29:14;;;;;;;10.75;4.97;;;;;;;-142.75;100.00;75916.81;5006686;28;20030;-63
2023/07/16 06:31:42;;;;;;;10.63;3.85;;;;;;;-142.75;100.00;75928.63;5009054;28;20559;-63
2023/07/16 06:34:07;;;;;;;8.48;4.25;;;;;;;-142.75;100.00;75948.31;5008757;28;20056;-63
2023/07/16 06:36:33;;;;;;;9.82;4.57;;;;;;;-142.75;100.00;75964.03;5007115;28;20477;-63
2023/07/16 06:39:00;;;;;;;8.02;3.72;;;;;;;-142.75;100.00;75973.88;5008331;28;20536;-63
2023/07/16 06:41:25;;;;;;;9.20;4.03;;;;;;;-142.75;100.00;75940.44;5008742;28;20022;-61
2023/07/16 06:43:51;;;;;;;12.70;4.00;;;;;;;-142.75;100.00;75918.78;5008494;28;20528;-63
2023/07/16 06:46:16;;;;;;;7.07;3.53;;;;;;;-142.75;100.00;75897.13;5008166;28;20030;-63
2023/07/16 06:48:41;;;;;;;16.45;4.70;;;;;;;-142.75;100.00;75877.44;5009300;28;20381;-62
2023/07/16 06:51:07;;;;;;;10.05;4.25;;;;;;;-142.75;100.00;75838.09;5008089;28;20037;-63
2023/07/16 06:53:33;;;;;;;8.70;4.00;;;;;;;-142.75;100.00;75840.06;5008283;28;20056;-63
2023/07/16 06:55:58;;;;;;;9.65;4.75;;;;;;;-142.75;100.00;75838.09;5008023;28;20033;-64
2023/07/16 06:58:32;;;;;;;10.20;3.88;;;;;;;-142.75;100.00;75836.13;5008001;28;20698;-63
2023/07/16 07:00:57;;;;;;;12.88;4.20;;;;;;;-142.75;100.00;75883.34;5007717;28;20060;-63
2023/07/16 07:03:22;;;;;;;12.45;4.63;;;;;;;-142.75;100.00;75887.28;5007808;28;20034;-64
2023/07/16 07:05:48;;;;;;;11.10;4.43;;;;;;;-142.75;100.00;75920.75;5008102;28;20105;-64
2023/07/16 07:08:13;;;;;;;10.43;4.40;;;;;;;-142.75;100.00;75964.03;5007883;28;20021;-62
2023/07/16 07:10:39;;;;;;;10.55;4.68;;;;;;;-142.75;100.00;75946.34;5007749;28;20033;-61
2023/07/16 07:13:05;;;;;;;11.43;4.28;;;;;;;-142.75;100.00;75960.13;5007843;28;20033;-62
2023/07/16 07:15:30;;;;;;;12.40;4.47;;;;;;;-142.75;100.00;75964.03;5008401;28;20034;-60
2023/07/16 07:17:55;;;;;;;14.13;5.40;;;;;;;-142.75;100.00;75964.03;5007908;28;20507;-62
2023/07/16 07:20:21;;;;;;;12.35;4.30;;;;;;;-142.75;100.00;75905.00;5008007;28;20029;-62
2023/07/16 07:22:46;;;;;;;13.43;4.18;;;;;;;-142.75;100.00;75865.63;5007576;28;20065;-63
2023/07/16 07:25:11;;;;;;;13.40;4.60;;;;;;;-142.75;100.00;75853.84;5007650;28;20022;-62
2023/07/16 07:27:37;;;;;;;11.30;5.85;;;;;;;-142.75;100.00;75873.50;5007489;28;20099;-62
2023/07/16 07:30:02;;;;;;;8.23;3.95;;;;;;;-142.75;100.00;75893.19;5007030;28;20128;-62
2023/07/16 07:32:29;;;;;;;9.75;4.72;;;;;;;-142.75;100.00;75905.00;4986929;28;20058;-62
2023/07/16 07:34:54;;;;;;;12.25;5.20;;;;;;;-142.75;100.00;75920.75;4997195;28;20022;-62
2023/07/16 07:37:19;;;;;;;12.18;4.95;;;;;;;-142.75;100.00;75920.75;5007449;28;20482;-62
2023/07/16 07:39:47;;;;;;;13.68;5.28;;;;;;;-142.75;100.00;75948.31;5007349;28;20069;-63
2023/07/16 07:42:13;;;;;;;12.38;5.30;;;;;;;-142.75;100.00;75936.50;5008531;28;20044;-59
2023/07/16 07:44:38;;;;;;;10.13;4.82;;;;;;;-142.75;100.00;75908.94;5009337;28;20482;-62
2023/07/16 07:47:04;;;;;;;14.10;4.65;;;;;;;-142.75;100.00;75889.25;5005512;28;20030;-61
2023/07/16 07:49:30;;;;;;;12.48;4.80;;;;;;;-142.75;100.00;75912.88;4987803;28;20109;-63
2023/07/16 07:51:55;;;;;;;13.57;5.35;;;;;;;-142.75;100.00;75930.59;5009437;28;20136;-63
2023/07/16 07:54:20;;;;;;;9.25;5.15;;;;;;;-142.75;100.00;75942.41;4998442;28;20089;-61
2023/07/16 07:56:46;;;;;;;10.10;4.15;;;;;;;-142.75;100.00;75954.22;5008895;28;20501;-62
2023/07/16 07:59:11;;;;;;;10.30;4.43;;;;;;;-142.75;100.00;75948.31;4996379;28;20026;-62
2023/07/16 08:01:37;;;;;;;9.32;4.30;;;;;;;-142.75;100.00;75975.84;4994649;28;20026;-62
2023/07/16 08:04:02;;;;;;;11.65;5.30;;;;;;;-142.75;100.00;75973.88;4993032;28;20022;-62
2023/07/16 08:06:28;;;;;;;9.05;4.28;;;;;;;-142.75;100.00;75969.94;4989230;28;20131;-61
2023/07/16 08:08:53;;;;;;;10.35;4.93;;;;;;;-142.75;100.00;75954.22;4988672;28;20029;-62
2023/07/16 08:11:18;;;;;;;9.77;4.20;;;;;;;-142.75;100.00;75952.25;4989114;28;20026;-61
2023/07/16 08:13:44;;;;;;;14.13;4.78;;;;;;;-142.75;100.00;75920.75;4989300;28;20076;-62
2023/07/16 08:16:09;;;;;;;16.60;5.65;;;;;;;-142.75;100.00;75914.84;4989266;28;20037;-62
2023/07/16 08:18:35;;;;;;;11.32;4.35;;;;;;;-142.75;100.00;75906.97;4989158;28;20030;-62
2023/07/16 08:21:00;;;;;;;10.75;4.65;;;;;;;-142.75;100.00;75895.16;4988864;28;20105;-63
2023/07/16 08:23:25;;;;;;;13.25;4.82;;;;;;;-142.75;100.00;75895.16;4988942;28;20124;-62
2023/07/16 08:25:51;;;;;;;10.80;4.82;;;;;;;-142.75;100.00;75912.88;4988971;28;20018;-63
2023/07/16 08:28:16;;;;;;;12.27;5.18;;;;;;;-142.75;100.00;75906.97;4989118;28;20510;-62
2023/07/16 08:30:42;;;;;;;12.18;4.97;;;;;;;-142.75;100.00;75920.75;4988964;28;20037;-62
2023/07/16 08:33:07;;;;;;;11.10;4.80;;;;;;;-142.75;100.00;75932.56;4988798;28;20516;-63
2023/07/16 08:35:32;;;;;;;9.02;4.40;;;;;;;-142.75;100.00;75928.63;4988642;28;20026;-61
2023/07/16 08:37:58;;;;;;;9.68;4.30;;;;;;;-142.75;100.00;75932.56;4988827;28;20022;-62
2023/07/16 08:40:23;;;;;;;12.82;5.00;;;;;;;-142.75;100.00;75934.53;4988201;28;20038;-62
2023/07/16 08:42:49;;;;;;;10.27;4.28;;;;;;;-142.75;100.00;75928.63;4988140;28;20018;-62
2023/07/16 08:45:18;;;;;;;9.35;4.60;;;;;;;-142.75;100.00;75908.94;4987856;28;20112;-63
2023/07/16 08:47:43;;;;;;;13.43;5.28;;;;;;;-142.75;100.00;75912.88;4992773;28;20429;-61
2023/07/16 08:50:09;;;;;;;12.00;4.10;;;;;;;-142.75;100.00;75912.88;5007036;28;20030;-61
2023/07/16 08:52:35;;;;;;;12.93;4.88;;;;;;;-142.75;100.00;75901.06;5006904;28;20025;-62
2023/07/16 08:55:00;;;;;;;11.75;4.20;;;;;;;-142.75;100.00;75924.69;5007272;28;20025;-61
2023/07/16 08:57:27;;;;;;;9.45;4.53;;;;;;;-142.75;100.00;75889.25;5007347;28;20018;-62
2023/07/16 08:59:52;;;;;;;10.30;4.80;;;;;;;-142.75;100.00;75861.69;5007009;28;20022;-62
2023/07/16 09:02:18;;;;;;;7.88;3.72;;;;;;;-142.75;100.00;75853.84;5007417;28;20791;-63
2023/07/16 09:04:46;;;;;;;11.00;4.15;;;;;;;-142.75;100.00;75865.63;5007431;28;20048;-61
2023/07/16 09:07:11;;;;;;;11.57;4.75;;;;;;;-142.75;100.00;75889.25;5007387;28;20520;-62
2023/07/16 09:09:36;;;;;;;8.82;4.05;;;;;;;-142.75;100.00;75881.38;5007345;28;20026;-62
2023/07/16 09:12:02;;;;;;;9.23;4.03;;;;;;;-142.75;100.00;75889.25;5006796;28;20201;-61
2023/07/16 09:14:27;;;;;;;13.65;3.72;;;;;;;-142.75;100.00;75901.06;5007231;28;20543;-62
2023/07/16 09:16:54;;;;;;;13.75;4.45;;;;;;;-142.75;100.00;75924.69;5007114;28;20069;-62
2023/07/16 09:19:19;;;;;;;11.85;3.47;;;;;;;-142.75;100.00;75912.88;5006551;28;20037;-61
2023/07/16 09:21:49;;;;;;;12.13;4.63;;;;;;;-142.75;100.00;75865.63;5007023;28;20021;-61
2023/07/16 09:24:15;;;;;;;9.48;4.25;;;;;;;-142.75;100.00;75845.97;5006867;28;20120;-62
2023/07/16 09:26:51;;;;;;;10.95;4.28;;;;;;;-142.75;100.00;75810.53;5007070;28;20160;-62
2023/07/16 09:29:17;;;;;;;8.85;3.30;;;;;;;-142.75;100.00;75777.06;5006355;28;20022;-62
2023/07/16 09:31:55;;;;;;;6.40;2.58;;;;;;;-142.75;100.00;75755.44;5007169;28;20033;-63
2023/07/16 09:34:21;;;;;;;7.68;3.20;;;;;;;-142.75;100.00;75804.63;5006422;28;20033;-62
2023/07/16 09:36:50;;;;;;;9.27;3.50;;;;;;;-142.75;100.00;75834.16;5006841;28;20030;-63
2023/07/16 09:39:17;;;;;;;7.85;3.00;;;;;;;-142.75;100.00;75814.47;5006345;28;20030;-60
2023/07/16 09:41:43;;;;;;;7.05;3.33;;;;;;;-142.75;100.00;75845.97;5006953;28;20163;-62
2023/07/16 09:44:10;;;;;;;8.70;3.85;;;;;;;-142.75;100.00;75845.97;5006791;28;20022;-64
2023/07/16 09:46:35;;;;;;;8.15;4.18;;;;;;;-142.75;100.00;75869.56;5006416;28;20033;-60
2023/07/16 09:49:01;;;;;;;8.20;4.35;;;;;;;-142.75;100.00;75879.41;5005549;28;20021;-61
2023/07/16 09:51:30;;;;;;;9.52;3.75;;;;;;;-142.75;100.00;75885.31;5006480;28;20079;-61
2023/07/16 09:53:57;;;;;;;7.38;4.10;;;;;;;-142.75;100.00;75889.25;5006263;28;20026;-61
2023/07/16 09:56:28;;;;;;;10.00;3.92;;;;;;;-142.75;100.00;75867.59;5006288;28;20659;-62
2023/07/16 09:58:55;;;;;;;7.40;3.75;;;;;;;-142.75;100.00;75845.97;5006111;28;20026;-62
2023/07/16 10:01:21;;;;;;;9.35;4.07;;;;;;;-142.75;100.00;75779.03;5006208;28;20026;-61
2023/07/16 10:03:50;;;;;;;8.13;3.83;;;;;;;-142.75;100.00;75721.97;5005430;28;20041;-61
2023/07/16 10:06:16;;;;;;;11.48;4.43;;;;;;;-142.75;100.00;75751.50;5006120;28;20022;-62
2023/07/16 10:08:49;;;;;;;8.23;4.00;;;;;;;-142.75;100.00;75720.00;5006213;28;20021;-62
2023/07/16 10:11:17;;;;;;;6.55;3.65;;;;;;;-142.75;100.00;75692.44;5006608;28;20014;-62
2023/07/16 10:13:42;;;;;;;7.57;3.45;;;;;;;-142.75;100.00;75700.31;5006433;28;20029;-62
2023/07/16 10:16:10;;;;;;;6.70;2.95;;;;;;;-142.75;100.00;75747.56;4999892;28;20034;-63
2023/07/16 10:18:36;;;;;;;6.43;3.10;;;;;;;-142.75;100.00;75781.00;4986582;28;20466;-63
2023/07/16 10:21:07;;;;;;;10.57;3.53;;;;;;;-142.75;100.00;75779.03;4986038;28;20030;-60
2023/07/16 10:23:39;;;;;;;7.57;2.90;;;;;;;-142.75;100.00;75712.13;4986658;28;20030;-63
2023/07/16 10:26:06;;;;;;;10.68;3.08;;;;;;;-142.75;100.00;75723.94;4986264;28;20505;-61
2023/07/16 10:28:37;;;;;;;4.80;2.47;;;;;;;-142.75;100.00;75704.25;4986470;28;20367;-62
2023/07/16 10:31:03;;;;;;;9.80;2.40;;;;;;;-142.75;100.00;75712.13;4986269;28;20185;-60
2023/07/16 10:33:28;;;;;;;6.22;2.75;;;;;;;-142.75;100.00;75692.44;4986357;28;20034;-62
2023/07/16 10:35:57;;;;;;;8.40;2.55;;;;;;;-142.75;100.00;75716.06;4986405;28;20027;-63
2023/07/16 10:38:22;;;;;;;6.75;2.85;;;;;;;-142.75;100.00;75662.94;4986238;28;20018;-63
2023/07/16 10:40:48;;;;;;;6.43;2.47;;;;;;;-142.75;100.00;75655.06;4986740;28;20032;-62
2023/07/16 10:43:14;;;;;;;7.95;2.30;;;;;;;-142.75;100.00;75631.44;4986393;28;20088;-62
2023/07/16 10:45:40;;;;;;;4.68;2.50;;;;;;;-142.75;100.00;75659.00;4986417;28;20098;-62
2023/07/16 10:48:05;;;;;;;5.57;2.60;;;;;;;-142.75;100.00;75597.97;4986517;28;20030;-63
2023/07/16 10:50:35;;;;;;;3.83;2.13;;;;;;;-142.75;100.00;75641.28;4986154;28;20022;-63
2023/07/16 10:53:00;;;;;;;5.88;2.60;;;;;;;-142.75;98.23;75712.13;4986345;28;20504;-62
2023/07/16 10:55:28;;;;;;;7.03;2.10;;;;;;;-142.75;100.00;75714.09;4986096;28;20030;-62
2023/07/16 10:57:54;;;;;;;6.43;2.08;;;;;;;-142.75;100.00;75723.94;4986093;28;20052;-62
2023/07/16 11:00:21;;;;;;;5.55;1.85;;;;;;;-142.75;100.00;75710.16;4985870;28;20647;-63
2023/07/16 11:02:47;;;;;;;7.43;2.20;;;;;;;-142.75;100.00;75757.41;4986214;28;20507;-63